createdAt,value
2016-12-16T00:00:48.211Z,91.68
2016-12-16T00:01:58.903Z,91.97
2016-12-16T00:03:09.649Z,92.25
2016-12-16T00:04:20.366Z,91.87
2016-12-16T00:05:31.074Z,91.58
2016-12-16T00:06:41.817Z,92.16
2016-12-16T00:07:52.500Z,92.16
2016-12-16T00:09:03.196Z,92.06
2016-12-16T00:10:13.886Z,92.44
2016-12-16T00:11:25.077Z,91.87
2016-12-16T00:12:35.751Z,92.35
2016-12-16T00:13:46.448Z,91.92
2016-12-16T00:14:57.134Z,91.82
2016-12-16T00:16:07.829Z,91.53
2016-12-16T00:17:18.514Z,91.72
2016-12-16T00:18:29.211Z,91.92
2016-12-16T00:19:39.893Z,91.92
2016-12-16T00:20:50.573Z,91.34
2016-12-16T00:22:01.247Z,92.3
2016-12-16T00:23:11.947Z,91.72
2016-12-16T00:24:22.641Z,92.3
2016-12-16T00:25:33.362Z,92.4
2016-12-16T00:26:44.049Z,92.78
2016-12-16T00:27:54.712Z,91.92
2016-12-16T00:29:05.411Z,92.35
2016-12-16T00:30:16.101Z,91.63
2016-12-16T00:31:26.818Z,92.21
2016-12-16T00:32:37.482Z,92.06
2016-12-16T00:33:48.167Z,91.3
2016-12-16T00:34:58.867Z,91.58
2016-12-16T00:36:09.547Z,91.58
2016-12-16T00:37:20.227Z,91.53
2016-12-16T00:38:30.914Z,92.44
2016-12-16T00:39:41.585Z,92.35
2016-12-16T00:40:52.267Z,92.54
2016-12-16T00:42:03.496Z,92.35
2016-12-16T00:43:14.207Z,92.06
2016-12-16T00:44:24.896Z,91.77
2016-12-16T00:45:35.573Z,91.58
2016-12-16T00:46:46.798Z,91.2
2016-12-16T00:47:57.498Z,91.58
2016-12-16T00:49:08.202Z,91.49
2016-12-16T00:50:18.883Z,92.16
2016-12-16T00:51:29.593Z,92.25
2016-12-16T00:52:40.321Z,91.97
2016-12-16T00:53:51.006Z,92.73
2016-12-16T00:55:01.686Z,92.54
2016-12-16T00:56:12.366Z,92.06
2016-12-16T00:57:23.046Z,91.58
2016-12-16T00:58:33.742Z,92.16
2016-12-16T00:59:44.444Z,91.49
2016-12-16T01:00:55.134Z,91.39
2016-12-16T01:02:05.869Z,91.58
2016-12-16T01:03:17.065Z,91.68
2016-12-16T01:04:28.260Z,91.11
2016-12-16T01:05:38.947Z,91.68
2016-12-16T01:06:49.668Z,91.58
2016-12-16T01:08:00.556Z,91.77
2016-12-16T01:09:11.766Z,91.49
2016-12-16T01:10:22.445Z,91.77
2016-12-16T01:11:33.130Z,91.77
2016-12-16T01:12:43.800Z,91.49
2016-12-16T01:13:54.500Z,91.87
2016-12-16T01:15:05.714Z,91.87
2016-12-16T01:16:16.413Z,91.77
2016-12-16T01:17:27.104Z,92.25
2016-12-16T01:18:37.797Z,92.16
2016-12-16T01:19:48.511Z,91.97
2016-12-16T01:20:59.216Z,92.54
2016-12-16T01:22:09.919Z,93.02
2016-12-16T01:23:20.609Z,92.92
2016-12-16T01:24:31.835Z,92.35
2016-12-16T01:25:42.517Z,92.73
2016-12-16T01:26:53.212Z,92.35
2016-12-16T01:28:03.910Z,93.02
2016-12-16T01:29:14.607Z,92.88
2016-12-16T01:30:25.307Z,93.55
2016-12-16T01:31:35.999Z,93.45
2016-12-16T01:32:46.676Z,93.35
2016-12-16T01:33:57.402Z,93.64
2016-12-16T01:35:08.095Z,93.16
2016-12-16T01:36:18.795Z,93.93
2016-12-16T01:37:29.491Z,93.93
2016-12-16T01:38:40.157Z,93.93
2016-12-16T01:39:50.837Z,93.93
2016-12-16T01:41:01.514Z,94.12
2016-12-16T01:42:12.178Z,93.93
2016-12-16T01:43:22.858Z,94.21
2016-12-16T01:44:33.550Z,94.21
2016-12-16T01:45:44.226Z,94.89
2016-12-16T01:46:54.911Z,94.6
2016-12-16T01:48:05.622Z,94.31
2016-12-16T01:49:16.311Z,94.31
2016-12-16T01:50:27.013Z,94.7
2016-12-16T01:51:37.700Z,94.89
2016-12-16T01:52:48.369Z,94.89
2016-12-16T01:53:59.045Z,94.89
2016-12-16T01:55:09.727Z,94.89
2016-12-16T01:56:20.411Z,95.84
2016-12-16T01:57:31.089Z,95.07
2016-12-16T01:58:41.776Z,94.6
2016-12-16T01:59:52.482Z,94.79
2016-12-16T02:01:03.179Z,94.98
2016-12-16T02:02:13.885Z,95.07
2016-12-16T02:03:24.584Z,94.5
2016-12-16T02:04:35.254Z,93.84
2016-12-16T02:05:45.952Z,94.12
2016-12-16T02:06:56.640Z,93.88
2016-12-16T02:08:07.351Z,93.98
2016-12-16T02:09:18.039Z,93.4
2016-12-16T02:10:29.255Z,93.69
2016-12-16T02:11:39.942Z,93.79
2016-12-16T02:12:50.640Z,93.98
2016-12-16T02:14:01.335Z,93.21
2016-12-16T02:15:12.015Z,93.4
2016-12-16T02:16:22.686Z,93.59
2016-12-16T02:17:33.380Z,93.59
2016-12-16T02:18:44.089Z,93.4
2016-12-16T02:19:54.773Z,93.59
2016-12-16T02:21:05.471Z,93.5
2016-12-16T02:22:16.159Z,93.98
2016-12-16T02:23:26.859Z,93.5
2016-12-16T02:24:37.543Z,93.5
2016-12-16T02:25:48.232Z,93.4
2016-12-16T02:26:58.966Z,94.07
2016-12-16T02:28:09.658Z,93.79
2016-12-16T02:29:20.351Z,93.69
2016-12-16T02:30:31.048Z,93.79
2016-12-16T02:31:41.732Z,94.26
2016-12-16T02:32:52.400Z,94.84
2016-12-16T02:34:03.225Z,94.74
2016-12-16T02:35:13.919Z,94.36
2016-12-16T02:36:24.598Z,94.65
2016-12-16T02:37:35.273Z,94.65
2016-12-16T02:38:45.980Z,94.55
2016-12-16T02:39:56.673Z,94.93
2016-12-16T02:41:07.350Z,93.98
2016-12-16T02:42:18.029Z,93.98
2016-12-16T02:43:28.706Z,94.26
2016-12-16T02:44:39.450Z,94.17
2016-12-16T02:45:50.142Z,93.98
2016-12-16T02:47:00.832Z,94.65
2016-12-16T02:48:12.026Z,93.88
2016-12-16T02:49:22.724Z,94.26
2016-12-16T02:50:33.425Z,93.98
2016-12-16T02:51:44.333Z,94.26
2016-12-16T02:52:55.538Z,94.17
2016-12-16T02:54:06.240Z,93.69
2016-12-16T02:55:17.674Z,93.98
2016-12-16T02:56:28.414Z,94.17
2016-12-16T02:57:39.119Z,93.59
2016-12-16T02:58:49.812Z,93.69
2016-12-16T03:00:00.534Z,93.98
2016-12-16T03:01:11.224Z,93.59
2016-12-16T03:02:21.946Z,93.88
2016-12-16T03:03:32.672Z,93.98
2016-12-16T03:04:43.374Z,94.17
2016-12-16T03:05:54.103Z,93.88
2016-12-16T03:07:04.797Z,93.64
2016-12-16T03:08:15.501Z,93.5
2016-12-16T03:09:26.186Z,93.98
2016-12-16T03:10:36.876Z,93.69
2016-12-16T03:11:47.539Z,93.79
2016-12-16T03:12:58.218Z,93.74
2016-12-16T03:14:08.925Z,93.88
2016-12-16T03:15:19.615Z,93.35
2016-12-16T03:16:30.314Z,94.02
2016-12-16T03:17:41.010Z,94.02
2016-12-16T03:18:51.686Z,93.26
2016-12-16T03:20:02.350Z,93.35
2016-12-16T03:21:13.156Z,93.54
2016-12-16T03:22:23.843Z,92.87
2016-12-16T03:23:34.539Z,93.26
2016-12-16T03:24:45.233Z,92.78
2016-12-16T03:25:55.925Z,92.68
2016-12-16T03:27:06.632Z,93.12
2016-12-16T03:28:17.327Z,93.02
2016-12-16T03:29:28.007Z,93.59
2016-12-16T03:30:38.738Z,93.5
2016-12-16T03:31:49.463Z,93.5
2016-12-16T03:33:00.154Z,93.88
2016-12-16T03:34:10.860Z,93.21
2016-12-16T03:35:21.573Z,93.98
2016-12-16T03:36:32.259Z,92.83
2016-12-16T03:37:43.015Z,93.3
2016-12-16T03:38:53.690Z,93.35
2016-12-16T03:40:04.350Z,93.02
2016-12-16T03:41:15.022Z,93.4
2016-12-16T03:42:25.703Z,92.83
2016-12-16T03:43:36.421Z,92.44
2016-12-16T03:44:47.106Z,92.44
2016-12-16T03:45:57.774Z,92.87
2016-12-16T03:47:08.450Z,92.73
2016-12-16T03:48:19.150Z,92.44
2016-12-16T03:49:29.840Z,92.4
2016-12-16T03:50:40.537Z,92.11
2016-12-16T03:51:51.258Z,92.4
2016-12-16T03:53:01.946Z,92.58
2016-12-16T03:54:12.652Z,92.01
2016-12-16T03:55:23.333Z,92.58
2016-12-16T03:56:34.562Z,92.78
2016-12-16T03:57:45.260Z,92.68
2016-12-16T03:58:55.964Z,92.78
2016-12-16T04:00:06.648Z,91.72
2016-12-16T04:01:17.334Z,92.87
2016-12-16T04:02:28.030Z,92.11
2016-12-16T04:03:38.742Z,92.58
2016-12-16T04:04:49.411Z,92.92
2016-12-16T04:06:00.101Z,92.54
2016-12-16T04:07:10.806Z,92.83
2016-12-16T04:08:21.514Z,93.21
2016-12-16T04:09:32.220Z,93.3
2016-12-16T04:10:42.901Z,93.3
2016-12-16T04:11:53.575Z,93.98
2016-12-16T04:13:04.281Z,93.79
2016-12-16T04:14:14.967Z,94.07
2016-12-16T04:15:25.645Z,93.4
2016-12-16T04:16:36.335Z,93.4
2016-12-16T04:17:46.998Z,94.07
2016-12-16T04:18:57.674Z,93.59
2016-12-16T04:20:08.349Z,93.3
2016-12-16T04:21:19.054Z,93.88
2016-12-16T04:22:29.746Z,94.17
2016-12-16T04:23:40.433Z,93.93
2016-12-16T04:24:51.138Z,94.17
2016-12-16T04:26:01.822Z,93.79
2016-12-16T04:27:12.511Z,93.88
2016-12-16T04:28:23.181Z,93.79
2016-12-16T04:29:33.852Z,94.6
2016-12-16T04:30:44.533Z,94.31
2016-12-16T04:31:55.753Z,93.55
2016-12-16T04:33:06.478Z,94.12
2016-12-16T04:34:17.166Z,92.59
2016-12-16T04:35:27.860Z,93.26
2016-12-16T04:36:39.056Z,93.45
2016-12-16T04:37:50.233Z,93.07
2016-12-16T04:39:01.443Z,93.26
2016-12-16T04:40:12.146Z,93.74
2016-12-16T04:41:22.820Z,93.84
2016-12-16T04:42:33.531Z,93.84
2016-12-16T04:43:44.227Z,94.98
2016-12-16T04:44:55.625Z,94.41
2016-12-16T04:46:06.330Z,94.5
2016-12-16T04:47:17.025Z,94.5
2016-12-16T04:48:27.709Z,94.79
2016-12-16T04:49:38.421Z,94.98
2016-12-16T04:50:49.112Z,94.31
2016-12-16T04:51:59.790Z,94.6
2016-12-16T04:53:10.490Z,93.35
2016-12-16T04:54:21.225Z,93.93
2016-12-16T04:55:31.919Z,93.84
2016-12-16T04:56:42.605Z,93.74
2016-12-16T04:57:53.294Z,94.89
2016-12-16T04:59:03.996Z,94.79
2016-12-16T05:00:14.671Z,95.84
2016-12-16T05:01:25.371Z,95.65
2016-12-16T05:02:36.065Z,95.56
2016-12-16T05:03:46.766Z,95.65
2016-12-16T05:04:57.424Z,95.56
2016-12-16T05:06:08.088Z,95.36
2016-12-16T05:07:18.787Z,95.75
2016-12-16T05:08:29.466Z,95.56
2016-12-16T05:09:40.125Z,95.94
2016-12-16T05:10:50.807Z,95.56
2016-12-16T05:12:01.506Z,95.36
2016-12-16T05:13:12.189Z,95.36
2016-12-16T05:14:22.873Z,95.46
2016-12-16T05:15:33.542Z,95.84
2016-12-16T05:16:44.206Z,95.65
2016-12-16T05:17:54.913Z,95.46
2016-12-16T05:19:05.598Z,95.27
2016-12-16T05:20:16.784Z,95.65
2016-12-16T05:21:27.454Z,95.84
2016-12-16T05:22:38.114Z,95.65
2016-12-16T05:23:48.797Z,95.46
2016-12-16T05:24:59.482Z,95.75
2016-12-16T05:26:10.159Z,95.27
2016-12-16T05:27:20.835Z,94.7
2016-12-16T05:28:31.545Z,94.89
2016-12-16T05:29:42.254Z,95.17
2016-12-16T05:30:52.956Z,95.27
2016-12-16T05:32:03.636Z,95.7
2016-12-16T05:33:14.303Z,95.36
2016-12-16T05:34:24.994Z,95.36
2016-12-16T05:35:35.675Z,96.13
2016-12-16T05:36:46.370Z,96.13
2016-12-16T05:37:57.067Z,95.51
2016-12-16T05:39:07.747Z,95.75
2016-12-16T05:40:18.417Z,95.51
2016-12-16T05:41:29.108Z,95.46
2016-12-16T05:42:39.775Z,95.27
2016-12-16T05:43:50.433Z,95.46
2016-12-16T05:45:01.134Z,95.56
2016-12-16T05:46:11.823Z,95.75
2016-12-16T05:47:22.505Z,96.03
2016-12-16T05:48:33.180Z,95.46
2016-12-16T05:49:43.860Z,94.89
2016-12-16T05:50:54.510Z,94.7
2016-12-16T05:52:05.202Z,95.46
2016-12-16T05:53:15.882Z,96.22
2016-12-16T05:54:26.585Z,96.08
2016-12-16T05:55:37.266Z,96.61
2016-12-16T05:56:47.974Z,96.84
2016-12-16T05:57:58.659Z,96.75
2016-12-16T05:59:09.339Z,96.84
2016-12-16T06:00:19.999Z,97.52
2016-12-16T06:01:30.724Z,97.13
2016-12-16T06:02:41.393Z,97.33
2016-12-16T06:03:52.093Z,97.04
2016-12-16T06:05:02.765Z,97.33
2016-12-16T06:06:13.463Z,97.33
2016-12-16T06:07:24.142Z,96.47
2016-12-16T06:08:34.846Z,97.23
2016-12-16T06:09:46.044Z,97.33
2016-12-16T06:10:56.736Z,97.23
2016-12-16T06:12:07.419Z,97.71
2016-12-16T06:13:18.118Z,97.9
2016-12-16T06:14:29.315Z,98.28
2016-12-16T06:15:40.009Z,98.18
2016-12-16T06:16:51.194Z,97.9
2016-12-16T06:18:01.914Z,98.28
2016-12-16T06:19:12.595Z,98.18
2016-12-16T06:20:23.267Z,98.47
2016-12-16T06:21:33.947Z,98.28
2016-12-16T06:22:44.703Z,98.09
2016-12-16T06:23:55.374Z,98.95
2016-12-16T06:25:06.044Z,98.75
2016-12-16T06:26:16.773Z,98.57
2016-12-16T06:27:27.452Z,98.38
2016-12-16T06:28:38.127Z,98.85
2016-12-16T06:29:48.820Z,98.85
2016-12-16T06:30:59.496Z,98.95
2016-12-16T06:32:10.154Z,98.75
2016-12-16T06:33:20.851Z,99.24
2016-12-16T06:34:32.040Z,99.99
2016-12-16T06:35:42.725Z,99.99
2016-12-16T06:36:53.420Z,99.9
2016-12-16T06:38:04.143Z,99.14
2016-12-16T06:39:14.828Z,99.24
2016-12-16T06:40:25.549Z,98.95
2016-12-16T06:41:36.255Z,98.85
2016-12-16T06:42:46.938Z,98.38
2016-12-16T06:43:57.626Z,99.14
2016-12-16T06:45:08.323Z,98.75
2016-12-16T06:46:19.001Z,99.24
2016-12-16T06:47:29.688Z,98.95
2016-12-16T06:48:40.366Z,98.28
2016-12-16T06:49:51.043Z,98.38
2016-12-16T06:51:01.722Z,98.57
2016-12-16T06:52:12.436Z,97.8
2016-12-16T06:53:23.107Z,97.8
2016-12-16T06:54:33.802Z,97.52
2016-12-16T06:55:44.489Z,97.61
2016-12-16T06:56:55.168Z,97.52
2016-12-16T06:58:05.877Z,97.33
2016-12-16T06:59:16.563Z,96.47
2016-12-16T07:00:27.252Z,96.75
2016-12-16T07:01:37.932Z,97.23
2016-12-16T07:02:48.618Z,97.33
2016-12-16T07:03:59.270Z,96.75
2016-12-16T07:05:09.946Z,97.23
2016-12-16T07:06:20.639Z,97.33
2016-12-16T07:07:31.331Z,97.13
2016-12-16T07:08:42.035Z,97.23
2016-12-16T07:09:52.730Z,97.04
2016-12-16T07:11:03.416Z,97.52
2016-12-16T07:12:14.126Z,97.13
2016-12-16T07:13:24.846Z,96.84
2016-12-16T07:14:35.528Z,97.13
2016-12-16T07:15:46.223Z,97.52
2016-12-16T07:16:56.918Z,97.61
2016-12-16T07:18:07.625Z,97.42
2016-12-16T07:19:18.319Z,96.66
2016-12-16T07:20:29.039Z,96.37
2016-12-16T07:21:40.237Z,96.27
2016-12-16T07:22:50.965Z,96.37
2016-12-16T07:24:01.647Z,95.79
2016-12-16T07:25:12.311Z,96.47
2016-12-16T07:26:23.030Z,96.75
2016-12-16T07:27:33.880Z,96.56
2016-12-16T07:28:44.791Z,97.42
2016-12-16T07:29:55.484Z,97.04
2016-12-16T07:31:06.180Z,97.23
2016-12-16T07:32:16.876Z,97.52
2016-12-16T07:33:27.542Z,97.33
2016-12-16T07:34:38.236Z,97.42
2016-12-16T07:35:48.910Z,96.94
2016-12-16T07:36:59.603Z,97.04
2016-12-16T07:38:10.282Z,97.23
2016-12-16T07:39:20.979Z,97.13
2016-12-16T07:40:31.724Z,97.04
2016-12-16T07:41:42.943Z,97.23
2016-12-16T07:42:53.632Z,97.52
2016-12-16T07:44:04.350Z,97.23
2016-12-16T07:45:15.072Z,97.52
2016-12-16T07:46:25.782Z,97.33
2016-12-16T07:47:36.494Z,97.9
2016-12-16T07:48:47.191Z,97.23
2016-12-16T07:49:57.877Z,97.23
2016-12-16T07:51:08.576Z,97.04
2016-12-16T07:52:19.259Z,97.33
2016-12-16T07:53:29.979Z,97.99
2016-12-16T07:54:40.671Z,98.18
2016-12-16T07:55:51.370Z,97.9
2016-12-16T07:57:02.057Z,97.8
2016-12-16T07:58:12.768Z,98.09
2016-12-16T07:59:23.470Z,98.09
2016-12-16T08:00:34.162Z,98.38
2016-12-16T08:01:44.891Z,98.85
2016-12-16T08:02:55.567Z,98.66
2016-12-16T08:04:06.258Z,98.18
2016-12-16T08:05:16.950Z,98.57
2016-12-16T08:06:27.638Z,98.57
2016-12-16T08:07:38.312Z,98.95
2016-12-16T08:08:49.007Z,99.43
2016-12-16T08:09:59.701Z,98.85
2016-12-16T08:11:10.894Z,98.47
2016-12-16T08:12:22.298Z,98.75
2016-12-16T08:13:32.980Z,98.57
2016-12-16T08:14:43.655Z,98.66
2016-12-16T08:15:54.338Z,98.57
2016-12-16T08:17:05.054Z,98.66
2016-12-16T08:18:15.750Z,98.09
2016-12-16T08:19:26.453Z,98.28
2016-12-16T08:20:37.141Z,98.95
2016-12-16T08:21:47.864Z,98.75
2016-12-16T08:22:58.560Z,98.66
2016-12-16T08:24:09.259Z,98.95
2016-12-16T08:25:19.929Z,99.04
2016-12-16T08:26:30.601Z,98.95
2016-12-16T08:27:41.322Z,99.14
2016-12-16T08:28:52.064Z,98.28
2016-12-16T08:30:02.757Z,97.56
2016-12-16T08:31:13.454Z,97.28
2016-12-16T08:32:24.139Z,96.51
2016-12-16T08:33:34.830Z,96.8
2016-12-16T08:34:45.546Z,96.61
2016-12-16T08:35:56.255Z,96.32
2016-12-16T08:37:06.948Z,95.36
2016-12-16T08:38:17.640Z,95.75
2016-12-16T08:39:28.310Z,94.79
2016-12-16T08:40:38.995Z,94.65
2016-12-16T08:41:49.674Z,94.17
2016-12-16T08:43:00.375Z,93.21
2016-12-16T08:44:11.103Z,93.4
2016-12-16T08:45:21.834Z,93.59
2016-12-16T08:46:32.527Z,92.21
2016-12-16T08:47:43.227Z,92.11
2016-12-16T08:48:53.930Z,91.63
2016-12-16T08:50:04.614Z,90.96
2016-12-16T08:51:15.322Z,90.19
2016-12-16T08:52:26.040Z,90.05
2016-12-16T08:53:36.740Z,89.57
2016-12-16T08:54:47.971Z,89.09
2016-12-16T08:55:58.669Z,89.57
2016-12-16T08:57:09.359Z,89.18
2016-12-16T08:58:20.060Z,89.66
2016-12-16T08:59:30.741Z,89.28
2016-12-16T09:00:41.430Z,88.37
2016-12-16T09:01:52.117Z,87.5
2016-12-16T09:03:02.817Z,87.12
2016-12-16T09:04:13.505Z,88.27
2016-12-16T09:05:24.180Z,88.75
2016-12-16T09:06:34.863Z,89.32
2016-12-16T09:07:45.774Z,88.8
2016-12-16T09:08:56.989Z,88.99
2016-12-16T09:10:07.695Z,89.13
2016-12-16T09:11:18.388Z,89.86
2016-12-16T09:12:29.066Z,90.43
2016-12-16T09:13:39.772Z,91.39
2016-12-16T09:14:50.488Z,91.58
2016-12-16T09:16:01.190Z,91.63
2016-12-16T09:17:11.906Z,92.4
2016-12-16T09:18:22.609Z,92.49
2016-12-16T09:19:33.272Z,92.21
2016-12-16T09:20:43.960Z,92.68
2016-12-16T09:21:54.626Z,92.78
2016-12-16T09:23:05.293Z,92.78
2016-12-16T09:24:15.982Z,93.16
2016-12-16T09:25:26.671Z,93.35
2016-12-16T09:26:37.389Z,92.49
2016-12-16T09:27:48.123Z,93.16
2016-12-16T09:28:58.829Z,93.26
2016-12-16T09:30:09.717Z,92.97
2016-12-16T09:31:20.919Z,91.63
2016-12-16T09:32:31.617Z,89.86
2016-12-16T09:33:42.312Z,87.88
2016-12-16T09:34:53.091Z,86.49
2016-12-16T09:36:03.797Z,86.4
2016-12-16T09:37:14.474Z,86.78
2016-12-16T09:38:25.182Z,84.67
2016-12-16T09:39:35.871Z,83.6
2016-12-16T09:40:46.568Z,82.54
2016-12-16T09:41:57.241Z,82.74
2016-12-16T09:43:07.952Z,81.2
2016-12-16T09:44:18.628Z,81.82
2016-12-16T09:45:29.357Z,82.16
2016-12-16T09:46:40.053Z,83.98
2016-12-16T09:47:50.745Z,84.23
2016-12-16T09:49:01.416Z,85.1
2016-12-16T09:50:12.128Z,85.19
2016-12-16T09:51:22.802Z,85.58
2016-12-16T09:52:33.500Z,86.58
2016-12-16T09:53:44.203Z,86.58
2016-12-16T09:54:54.881Z,86.58
2016-12-16T09:56:05.569Z,87.45
2016-12-16T09:57:16.462Z,87.35
2016-12-16T09:58:28.195Z,87.55
2016-12-16T09:59:38.911Z,87.55
2016-12-16T10:00:49.607Z,88.27
2016-12-16T10:02:00.307Z,87.88
2016-12-16T10:03:11.058Z,87.84
2016-12-16T10:04:21.761Z,88.7
2016-12-16T10:05:32.429Z,87.55
2016-12-16T10:06:43.165Z,87.16
2016-12-16T10:07:53.867Z,86.78
2016-12-16T10:09:05.085Z,87.55
2016-12-16T10:10:16.326Z,88.31
2016-12-16T10:11:27.027Z,88.12
2016-12-16T10:12:37.745Z,87.93
2016-12-16T10:13:48.462Z,88.56
2016-12-16T10:14:59.144Z,88.65
2016-12-16T10:16:09.861Z,88.65
2016-12-16T10:17:20.566Z,88.79
2016-12-16T10:18:31.252Z,88.31
2016-12-16T10:19:41.934Z,87.84
2016-12-16T10:20:52.658Z,87.93
2016-12-16T10:22:03.349Z,86.97
2016-12-16T10:23:14.057Z,87.16
2016-12-16T10:24:24.743Z,87.55
2016-12-16T10:25:35.425Z,87.55
2016-12-16T10:26:46.672Z,87.35
2016-12-16T10:27:57.361Z,86.68
2016-12-16T10:29:08.048Z,86.82
2016-12-16T10:30:18.709Z,86.97
2016-12-16T10:31:29.389Z,88.02
2016-12-16T10:32:40.066Z,87.35
2016-12-16T10:33:50.816Z,88.31
2016-12-16T10:35:01.524Z,87.93
2016-12-16T10:36:12.244Z,88.12
2016-12-16T10:37:22.933Z,88.51
2016-12-16T10:38:34.158Z,87.45
2016-12-16T10:39:44.854Z,87.74
2016-12-16T10:40:55.524Z,88.22
2016-12-16T10:42:06.197Z,88.31
2016-12-16T10:43:16.913Z,88.51
2016-12-16T10:44:27.605Z,87.64
2016-12-16T10:45:38.267Z,87.55
2016-12-16T10:46:48.975Z,87.49
2016-12-16T10:47:59.666Z,86.44
2016-12-16T10:49:10.388Z,87.35
2016-12-16T10:50:21.067Z,87.45
2016-12-16T10:51:31.759Z,86.72
2016-12-16T10:52:42.485Z,86.63
2016-12-16T10:53:53.184Z,86.82
2016-12-16T10:55:04.397Z,85.67
2016-12-16T10:56:15.632Z,85.19
2016-12-16T10:57:26.865Z,85.04
2016-12-16T10:58:38.078Z,85.14
2016-12-16T10:59:48.773Z,84.75
2016-12-16T11:00:59.460Z,84.18
2016-12-16T11:02:10.703Z,84.75
2016-12-16T11:03:21.411Z,84.66
2016-12-16T11:04:32.100Z,84.47
2016-12-16T11:05:42.805Z,85.19
2016-12-16T11:06:53.523Z,85.58
2016-12-16T11:08:04.738Z,84.37
2016-12-16T11:09:16.458Z,84.47
2016-12-16T11:10:27.142Z,84.18
2016-12-16T11:11:37.834Z,84.47
2016-12-16T11:12:48.524Z,84.66
2016-12-16T11:13:59.211Z,84.47
2016-12-16T11:15:09.931Z,84.47
2016-12-16T11:16:20.639Z,84.08
2016-12-16T11:17:31.338Z,84.18
2016-12-16T11:18:42.723Z,83.8
2016-12-16T11:19:53.428Z,83.16
2016-12-16T11:21:04.119Z,82.68
2016-12-16T11:22:14.847Z,82.87
2016-12-16T11:23:25.522Z,81.92
2016-12-16T11:24:36.230Z,81.63
2016-12-16T11:25:46.911Z,81.72
2016-12-16T11:26:57.595Z,80.66
2016-12-16T11:28:08.782Z,80.22
2016-12-16T11:29:19.471Z,80.42
2016-12-16T11:30:30.223Z,81.28
2016-12-16T11:31:40.949Z,80.32
2016-12-16T11:32:51.677Z,80.32
2016-12-16T11:34:02.367Z,80.99
2016-12-16T11:35:13.594Z,80.8
2016-12-16T11:36:24.297Z,79.65
2016-12-16T11:37:34.985Z,80.22
2016-12-16T11:38:45.691Z,80.38
2016-12-16T11:39:56.385Z,81.15
2016-12-16T11:41:07.110Z,81.43
2016-12-16T11:42:17.814Z,81.34
2016-12-16T11:43:28.499Z,81.05
2016-12-16T11:44:39.236Z,80.32
2016-12-16T11:45:49.936Z,79.46
2016-12-16T11:47:01.137Z,79.84
2016-12-16T11:48:11.837Z,79.36
2016-12-16T11:49:22.580Z,79.07
2016-12-16T11:50:33.321Z,78.88
2016-12-16T11:51:44.006Z,77.73
2016-12-16T11:52:54.685Z,79.02
2016-12-16T11:54:05.376Z,78.59
2016-12-16T11:55:16.079Z,79.46
2016-12-16T11:56:26.785Z,79.65
2016-12-16T11:57:37.465Z,78.4
2016-12-16T11:58:48.163Z,78.06
2016-12-16T11:59:58.873Z,77.96
2016-12-16T12:01:10.063Z,78.15
2016-12-16T12:02:20.753Z,77.19
2016-12-16T12:03:31.453Z,77.19
2016-12-16T12:04:42.149Z,76.52
2016-12-16T12:05:52.832Z,76.71
2016-12-16T12:07:03.562Z,76.23
2016-12-16T12:08:14.317Z,76.32
2016-12-16T12:09:24.998Z,76.56
2016-12-16T12:10:35.723Z,76.46
2016-12-16T12:11:46.479Z,76.36
2016-12-16T12:12:57.356Z,75.69
2016-12-16T12:14:08.065Z,74.73
2016-12-16T12:15:18.768Z,74.82
2016-12-16T12:16:29.464Z,75.69
2016-12-16T12:17:40.164Z,74.82
2016-12-16T12:18:50.914Z,76.46
2016-12-16T12:20:01.620Z,76.42
2016-12-16T12:21:12.388Z,76.14
2016-12-16T12:22:23.232Z,76.71
2016-12-16T12:23:33.929Z,76.42
2016-12-16T12:24:44.636Z,75.27
2016-12-16T12:25:55.340Z,75.65
2016-12-16T12:27:06.301Z,76.23
2016-12-16T12:28:16.995Z,76.61
2016-12-16T12:29:27.708Z,74.98
2016-12-16T12:30:38.418Z,75.49
2016-12-16T12:31:49.129Z,75.46
2016-12-16T12:32:59.863Z,75.11
2016-12-16T12:34:10.546Z,73.67
2016-12-16T12:35:21.775Z,73.71
2016-12-16T12:36:32.492Z,73.42
2016-12-16T12:37:43.180Z,73.51
2016-12-16T12:38:53.921Z,72.55
2016-12-16T12:40:04.602Z,73.51
2016-12-16T12:41:15.304Z,73.61
2016-12-16T12:42:26.013Z,73.51
2016-12-16T12:43:36.717Z,71.49
2016-12-16T12:44:47.418Z,71.91
2016-12-16T12:45:58.106Z,71.37
2016-12-16T12:47:08.812Z,70.31
2016-12-16T12:48:19.541Z,71.08
2016-12-16T12:49:30.230Z,72.01
2016-12-16T12:50:40.949Z,72.2
2016-12-16T12:51:51.642Z,73.03
2016-12-16T12:53:02.363Z,72.74
2016-12-16T12:54:13.567Z,73.03
2016-12-16T12:55:24.250Z,73.61
2016-12-16T12:56:34.957Z,72.84
2016-12-16T12:57:45.668Z,71.72
2016-12-16T12:58:56.399Z,71.53
2016-12-16T13:00:07.086Z,70.89
2016-12-16T13:01:17.782Z,69.93
2016-12-16T13:02:28.482Z,69.83
2016-12-16T13:03:39.185Z,69.29
2016-12-16T13:04:49.895Z,70.54
2016-12-16T13:06:00.597Z,70.31
2016-12-16T13:07:11.317Z,70.7
2016-12-16T13:08:22.018Z,71.85
2016-12-16T13:09:32.728Z,70.7
2016-12-16T13:10:43.468Z,69.48
2016-12-16T13:11:54.159Z,69.29
2016-12-16T13:13:04.868Z,69.67
2016-12-16T13:14:15.569Z,70.15
2016-12-16T13:15:26.282Z,70.73
2016-12-16T13:16:36.977Z,70.79
2016-12-16T13:17:47.706Z,70.44
2016-12-16T13:18:58.405Z,70.64
2016-12-16T13:20:09.112Z,70.06
2016-12-16T13:21:19.819Z,70.44
2016-12-16T13:22:30.515Z,70.44
2016-12-16T13:23:41.231Z,70.35
2016-12-16T13:24:51.964Z,69.09
2016-12-16T13:26:02.670Z,70.09
2016-12-16T13:27:13.359Z,70.73
2016-12-16T13:28:24.027Z,70.64
2016-12-16T13:29:34.723Z,70.35
2016-12-16T13:30:45.430Z,71.37
2016-12-16T13:31:56.128Z,71.37
2016-12-16T13:33:06.833Z,72.63
2016-12-16T13:34:17.580Z,72.39
2016-12-16T13:35:28.785Z,73.55
2016-12-16T13:36:39.469Z,72.3
2016-12-16T13:37:50.155Z,72.91
2016-12-16T13:39:00.843Z,72.43
2016-12-16T13:40:12.030Z,71.85
2016-12-16T13:41:22.733Z,71.47
2016-12-16T13:42:33.428Z,71.28
2016-12-16T13:43:44.640Z,70.98
2016-12-16T13:44:55.339Z,70.6
2016-12-16T13:46:06.096Z,70.31
2016-12-16T13:47:16.793Z,71.43
2016-12-16T13:48:27.474Z,71.91
2016-12-16T13:49:38.675Z,72.11
2016-12-16T13:50:49.868Z,72.68
2016-12-16T13:52:00.548Z,70.79
2016-12-16T13:53:11.267Z,70.25
2016-12-16T13:54:22.498Z,69.29
2016-12-16T13:55:33.213Z,68.99
2016-12-16T13:56:43.891Z,68.99
2016-12-16T13:57:54.584Z,68.84
2016-12-16T13:59:05.341Z,68.9
2016-12-16T14:00:16.056Z,69.48
2016-12-16T14:01:26.759Z,69.57
2016-12-16T14:02:37.979Z,70.44
2016-12-16T14:03:49.401Z,69.77
2016-12-16T14:05:00.795Z,69.67
2016-12-16T14:06:11.520Z,68.35
2016-12-16T14:07:22.230Z,68.84
2016-12-16T14:08:32.928Z,69.42
2016-12-16T14:09:43.617Z,67.88
2016-12-16T14:10:54.287Z,68.07
2016-12-16T14:12:05.006Z,68.99
2016-12-16T14:13:15.702Z,68.23
2016-12-16T14:14:26.410Z,67.97
2016-12-16T14:15:37.099Z,67.14
2016-12-16T14:16:47.772Z,67.49
2016-12-16T14:17:58.467Z,68.26
2016-12-16T14:19:09.208Z,67.84
2016-12-16T14:20:19.891Z,67.68
2016-12-16T14:21:30.624Z,64.92
2016-12-16T14:22:41.315Z,63.7
2016-12-16T14:23:52.048Z,64.47
2016-12-16T14:25:03.281Z,64.69
2016-12-16T14:26:13.989Z,64.69
2016-12-16T14:27:25.191Z,66.3
2016-12-16T14:28:35.913Z,65.53
2016-12-16T14:29:46.662Z,64.47
2016-12-16T14:30:57.854Z,65.05
2016-12-16T14:32:08.550Z,64.76
2016-12-16T14:33:19.276Z,64.66
2016-12-16T14:34:29.981Z,64.86
2016-12-16T14:35:41.169Z,64.66
2016-12-16T14:36:51.879Z,64.01
2016-12-16T14:38:03.090Z,64.01
2016-12-16T14:39:13.790Z,64.37
2016-12-16T14:40:24.483Z,66.08
2016-12-16T14:41:35.763Z,66.36
2016-12-16T14:42:46.496Z,67.49
2016-12-16T14:43:57.721Z,66.72
2016-12-16T14:45:08.448Z,65.72
2016-12-16T14:46:19.137Z,64.56
2016-12-16T14:47:29.846Z,65.82
2016-12-16T14:48:40.540Z,65.24
2016-12-16T14:49:51.245Z,64.01
2016-12-16T14:51:02.476Z,63.53
2016-12-16T14:52:13.166Z,64.01
2016-12-16T14:53:23.849Z,64.86
2016-12-16T14:54:34.546Z,64.95
2016-12-16T14:55:45.228Z,65.24
2016-12-16T14:56:55.961Z,65.53
2016-12-16T14:58:06.638Z,65.72
2016-12-16T14:59:17.853Z,67.17
2016-12-16T15:00:28.534Z,68.29
2016-12-16T15:01:39.266Z,68.39
2016-12-16T15:02:49.989Z,66.85
2016-12-16T15:04:00.702Z,66.69
2016-12-16T15:05:11.415Z,65.72
2016-12-16T15:06:22.088Z,65.05
2016-12-16T15:07:32.786Z,66.43
2016-12-16T15:08:43.550Z,64.5
2016-12-16T15:09:54.260Z,63.76
2016-12-16T15:11:04.977Z,62.44
2016-12-16T15:12:15.709Z,60.44
2016-12-16T15:13:26.434Z,62.59